AV - LB | Pilotos de la V.A




 METAR AND TAF INFORMATION
METAR FOR LGSM
ADDS - METARS form results

(0118 UTC 20 January 2021)
Data provider http://aviationweather.gov/metar/data/
 
Forecast for: LGSM (SAMOS AIRPORT , GR)
Text: TAF LGSM 192300Z 2000/2009 36010KT 9999 FEW020
Forecast period: 0000 to 0900 UTC 20 January 2021
Forecast type: FROM: standard forecast or significant change
Winds: from the N (360 degrees) at 12 MPH (10 knots; 5.1 m/s)
Visibility: 6 or more miles (10+ km)
Ceiling: at least 12,000 feet AGL
Clouds: few clouds at 2000 feet AGL
Weather: no significant weather forecast for this period

 AIRPORT MAP

 RUNWAY INFORMATION
Runway 09 Runway length 6706 ft Runway width 148 ft
Runway elevation 20 ft Runway displaced threshold 230 ft Runway heading 94
Runway 27 Runway length 6706 ft Runway width 148 ft
Runway elevation 10 ft Runway displaced threshold 0 ft Runway heading 274

 AIRPORT FREQUENCIES
Type A/G Name RDO Frequency 563.7 MHZ
Type APP Name APP Frequency 122.1 MHZ
Type TWR Name TWR Frequency 122.1 MHZ

 AIRPORT NEAR NAVIGATION AIDS
Type VOR-DME Name Samos Frequency 111600 KHZ
Type NDB Name Samos Frequency 375 KHZ